Ottawa Macdonald-Cartier International Airport

CYOW · 安大略, 加拿大

罗盘
风向 的 风向 360° 渥太华麦克唐纳-卡蒂埃国际机场 7/25
风: 7 kt, 3 beaufort

4 kt

6 kt
改变
0 6.000 12.000 18.000 24.000 30.000
FEW 24.000 ft
METAR CYND 030100Z 36007KT 15SM FEW240 06/01 A3039 RMK CI1 LAST STFD OBS/NXT 031100Z SLP295

METAR 渥太华麦克唐纳-卡蒂埃国际机场 - CYOW/YOW

渥太华麦克唐纳-卡蒂埃国际机场是Ottawa,加拿大中的大型机场。 该机场有2条跑道: 7/25 和 14/32. 该领域的国际民航组织标志是CYOW 它的国际航空运输协会代码是YOW.

这份报告是针对2022年10月2日 21:00, 当地时间在Ottawa / Gatineau Airport进行的。

机场观察

风向为360°,速度为7 kt。

可见度为15 mi。

有几云在24.000 ft的高度。 没有观察到天花板。

温度为6 °C,阵风为2 °C。 露点为1 °C,相对湿度为71%。 海平面上的气压为30,39 inHg (QNH)。

白天

今天,太阳从07:03升起,在18:39降落。 这适用于渥太华麦克唐纳-卡蒂埃国际机场,世界夏令时可能有所不同。 当地时间与世界标准时间之间的时差为-4 小时。 夏令时目前正在进行中。

公司介绍

在这个机场,你可以找到飞行学校。 本场上唯一已知的公司是Ottawa Flying Club。

体会

到Vliegles.nl去找飞行课程,跳伞和其他飞行体验。 浏览页面,了解渥太华麦克唐纳-卡蒂埃国际机场附近所有可用的活动。 你也可以使用搜索功能来寻找你所在地附近的特定飞行课程、跳伞或其他飞行体验。

跑道

Id 标题 侧风 逆风 侧风 %
7/25 057°-237° 6 kt 4 kt 84 %
14/32 126°-306° 6 kt 4 kt 81 %

逆风成分最大的方向会被突出显示,并用于横风计算。 这并不一定意味着这个方向在使用。

乌云

24.000 ft FEW 几云

温度 & 天气

温度 6 °C
露点 1 °C
相对湿度 71%
风寒 2 °C
Kp-index 2 (0-9)

评论

SLP295海平面压力为30,40 inHg (30,40 inHg)
CI1 LAST STFD OBS/NXT 031100Z

白天

日出
07:03 (2h 40m)
中午
12:51
日落
18:39

小工具

你想在你的网站上有一个关于渥太华麦克唐纳-卡蒂埃国际机场的当前航空天气(METAR)的小部件吗?

</> 显示HTML代码

我们和第三方通过cookies跟踪您在我们网站上的上网行为。如果您继续,我们认为您同意我们的cookie政策。 了解更多